Impacts METAR Board
IDs:

KMCO - Orlando Intl, FL, US

Updated at: 0200 UTC 19 Feb 2019
Potential Impact None Slight Moderate High
Time 18/14Z 18/15Z 18/16Z 18/17Z 18/18Z 18/19Z 18/20Z 18/21Z 18/22Z 18/23Z 19/00Z 19/01Z 19/02Z
Temp71 73 75 79 81 83 85 84 84 81 79 77 76
Dewpt71 72 72 72 71 69 68 66 66 67 66 67 69
Altim30.10 30.12 30.13 30.13 30.11 30.09 30.08 30.08 30.08 30.10 30.11 30.13 30.15
VIS0.25 0.75 3 7 10 10 10 10 10 10 10 10 10
CIG2 2 6 14 50 -- 80 85 90 90 -- 90 65
CoverOVXOVCOVCBKNBKNSCTBKNBKNBKNBKNFEWBKNBKN
FltCatLIFRLIFRIFRMVFRVFRVFRVFRVFRVFRVFRVFRVFRVFR
WXFGBRBR--------------------
WDir180190190190230230230240017000130
WSpd6 8 8 8 5 7 7 6 0 4 0 0 5
WGst-- -- -- -- -- -- -- -- -- -- -- -- --
Raw hourly METARs
KMCO 181353Z 18006KT 1/4SM R35L/2000V3000FT FG VV002 22/22 A3010 RMK AO2 SLP192 T02170217
KMCO 181453Z 19008KT 3/4SM R35L/4000VP6000FT BR OVC002 23/22 A3012 RMK AO2 SFC VIS 3 SLP199 T02280222 51015
KMCO 181553Z 19008KT 3SM BR BKN006 OVC010 24/22 A3013 RMK AO2 SFC VIS 5 SLP203 T02390222
KMCO 181653Z 19008KT 7SM SCT009 BKN014 26/22 A3013 RMK AO2 SLP202 T02610222
KMCO 181805Z 23005KT 10SM FEW020 SCT028 BKN050 27/22 A3011 RMK AO2 RAE1757 P0000 T02720217
KMCO 181853Z 23007KT 10SM SCT030 SCT070 28/21 A3009 RMK AO2 RAE1757 SLP187 P0000 T02830206
KMCO 181953Z 23007KT 10SM FEW030 BKN080 29/20 A3008 RMK AO2 SLP183 T02940200
KMCO 182053Z 24006KT 10SM FEW035 BKN085 29/19 A3008 RMK AO2 SLP183 60000 T02890189 56014
KMCO 182153Z 00000KT 10SM FEW030 FEW060 BKN090 29/19 A3008 RMK AO2 SLP185 T02890189
KMCO 182253Z 17004KT 10SM FEW060 BKN090 27/19 A3010 RMK AO2 SLP190 T02720194
KMCO 182353Z COR 00000KT 10SM FEW060 FEW090 26/19 A3011 RMK AO2 SLP195 60000 T02610189 10300 20261 53013
KMCO 190053Z 00000KT 10SM SCT060 BKN090 25/19 A3013 RMK AO2 SLP200 T02500194
KMCO 190153Z 13005KT 10SM BKN065 24/21 A3015 RMK AO2 SLP209 T02440206



Page loaded:  02:14 UTC  |   06:14 PM Pacific  |   07:14 PM Mountain  |   08:14 PM Central  |   09:14 PM Eastern

 

ADVISORIES

FORECASTS

FORECASTS

OBSERVATIONS

USER TOOLS

ABOUT US